Terrebonne, Oregon
Current Conditions -  °F | °C
As of 12:56 PM on Tuesday 21 Oct 2014 (Local Time) from KRDM Reporting Station
Broken Clouds Broken Clouds  
Wind Chill: 56°   Ceiling: 9500
Heat Index: 56°   Visibility: 10mi
Dew Point: 36°   Wind: 6mph
Humidity: 47%   Direction: 210°SSW
Pressure: 30.03"   Gusts: NA
Location:  44.35°N, 121.18°W
Report Text: KRDM 211956Z 21005KT 10SM SCT055 BKN095 13/02 A3003 RMK AO2 SLP168 T01330022
Loading
Personal Weather Stations






























Interactive Weather Map
Tropical Storm Tracking
New forecast layout! Learn more

10-Day Weather Forecast

Advertisements
Track Severe Weather on mobile